Startpagina
METAR-TAF:

METAR-TAF

Vliegvelden :

Småland Airport

Växjö, Zweden

breedte: 56-51N, lengte: 014-50E, hoogte: 199 m

Actueel weer

Dit bericht is 12 minuten geleden gemaakt, om 03:20 UTC
Wind 10 kt uit het zuidzuidwesten
Temperatuur 3°C
Vochtigheid 100%
Druk 1001 hPa
Zicht 10 km of meer

METAR: ESMX 190320Z AUTO 20010KT 9999 BKN007/// BKN009/// OVC014/// 03/03 Q1001

Tijdstip: 04:32 (03:32 UTC)

Verwachting

Dit bericht is 10 uur en het 2 minuten geleden gemaakt, om 17:30 UTC
Verwachting geldig van 18 om 18 UTC tot 18 om 21 UTC
Wind 14 kt uit het zuidwesten met uitschieters tot 24 kt
Zicht 10 km of meer
Verspreide wolken op 1000 ft
Gebroken wolken op 2000 ft
Tijdelijke
van 18 om 18 UTC tot 18 om 21 UTC
Zicht: 4000 m
Gebroken wolken op 800 ft
Gebroken wolken op 2000 ft, Cumulonimbus.
regenbuien

TAF: ESMX 181730Z 1818/1821 23014G24KT 9999 SCT010 BKN020 TEMPO 1818/1821 4000 SHRA BKN008 BKN020CB

Waarnemingen en weersverwachtingen van meer dan 4000 vliegvelden (METAR en TAF).

De beschikbare stations zijn de gele en rode punten op de kaart.

Ga met uw muis naar het station om de naam te zien.

Klik dan om waarnemingen en weersverwachtingen te zien.

kaart wijzigen: klik op de groene knoppen met een zwart kruis om in te zoomen, op de groene knop met een streepje om uit te zoomen of op de groene pijlen voor aangrenzende kaarten.


METAR-TAF: